Kirvin, Texas
Current Conditions -  °F | °C
As of 4:15 AM on Sunday 25 Jan 2015 (Local Time) from KLXY Reporting Station
Clear Clear  
Wind Chill: 38°   Ceiling: Unl
Heat Index: 41°   Visibility: 10mi
Dew Point: 35°   Wind: 5mph
Humidity: 78%   Direction: 220°SW
Pressure: 29.97"   Gusts: NA
Location:  31.77°N, 96.33°W
Report Text: KLXY 251015Z AUTO 22004KT 10SM CLR 05/02 A2997 RMK AO2 T00520017
Loading
Personal Weather Stations






























Interactive Weather Map New forecast layout! Learn more

10-Day Weather Forecast

Advertisements
Track Severe Weather on mobile